Time;durP1;ratioP1;P1;durP2;ratioP2;P2;SDS_P1;SDS_P2;PMS_P1;PMS_P2;Temp;Humidity;BMP_temperature;BMP_pressure;BME280_temperature;BME280_humidity;BME280_pressure;Samples;Min_cycle;Max_cycle;Signal;HPM_P1;HPM_P2
2020/12/08 00:01:28;;;;;;;5.97;2.67;;;;;;;14.45;66.73;99831.09;5070202;28;20111;-41
2020/12/08 00:03:54;;;;;;;7.95;2.33;;;;;;;14.36;67.70;99820.13;5071034;28;20028;-45
2020/12/08 00:06:19;;;;;;;7.60;4.72;;;;;;;14.21;69.33;99817.59;5070780;28;20043;-43
2020/12/08 00:08:44;;;;;;;8.60;4.97;;;;;;;14.04;68.71;99796.47;5070556;28;20036;-42
2020/12/08 00:11:16;;;;;;;20.85;4.25;;;;;;;14.21;67.86;99793.31;5071216;28;20406;-41
2020/12/08 00:13:43;;;;;;;13.35;2.70;;;;;;;14.26;67.97;99798.66;5070788;28;20048;-39
2020/12/08 00:16:10;;;;;;;11.02;2.83;;;;;;;14.24;68.13;99806.25;5071111;28;20037;-39
2020/12/08 00:18:35;;;;;;;2.05;1.15;;;;;;;14.33;68.31;99801.81;5070964;28;20119;-45
2020/12/08 00:21:01;;;;;;;6.35;2.42;;;;;;;14.36;68.03;99805.84;5070585;28;20603;-43
2020/12/08 00:23:26;;;;;;;3.53;2.80;;;;;;;14.28;68.55;99807.25;5071010;28;20168;-42
2020/12/08 00:25:51;;;;;;;11.13;3.70;;;;;;;14.37;68.18;99808.25;5083786;28;20030;-43
2020/12/08 00:28:17;;;;;;;5.28;2.88;;;;;;;14.37;68.33;99805.56;5086016;28;20143;-39
2020/12/08 00:30:42;;;;;;;11.68;4.18;;;;;;;14.29;68.70;99814.28;5071144;28;20587;-39
2020/12/08 00:33:08;;;;;;;6.35;2.28;;;;;;;14.26;68.45;99806.75;5070346;28;20055;-40
2020/12/08 00:35:33;;;;;;;6.10;1.83;;;;;;;14.18;69.39;99796.59;5080720;28;20106;-40
2020/12/08 00:37:59;;;;;;;8.82;2.50;;;;;;;14.11;69.58;99806.91;5075511;28;20032;-41
2020/12/08 00:40:24;;;;;;;20.48;3.75;;;;;;;13.99;69.91;99786.56;5070883;28;20034;-40
2020/12/08 00:42:49;;;;;;;6.50;1.98;;;;;;;14.05;69.23;99783.81;5080587;28;20202;-39
2020/12/08 00:45:15;;;;;;;4.20;1.60;;;;;;;13.95;69.09;99784.69;5070634;28;20029;-40
2020/12/08 00:47:40;;;;;;;8.10;2.05;;;;;;;14.13;67.75;99796.63;5070546;28;20118;-39
2020/12/08 00:50:07;;;;;;;7.13;2.75;;;;;;;14.11;67.77;99798.81;5069970;28;20051;-39
2020/12/08 00:52:33;;;;;;;8.57;2.35;;;;;;;14.15;66.65;99792.59;5070736;28;20028;-39
2020/12/08 00:54:58;;;;;;;7.78;1.70;;;;;;;14.05;65.87;99790.00;5078116;28;20127;-39
2020/12/08 00:57:24;;;;;;;2.92;0.85;;;;;;;13.94;65.89;99786.59;5070168;28;20067;-39
2020/12/08 00:59:49;;;;;;;7.35;1.08;;;;;;;13.89;64.25;99792.03;5070491;28;20052;-38
2020/12/08 01:02:16;;;;;;;4.82;1.98;;;;;;;13.86;63.12;99792.59;5088385;28;20033;-37
2020/12/08 01:04:42;;;;;;;4.57;1.63;;;;;;;13.82;64.68;99794.25;5073208;28;20044;-40
2020/12/08 01:07:08;;;;;;;1.65;0.52;;;;;;;13.93;62.32;99787.66;5072751;28;20032;-41
2020/12/08 01:09:34;;;;;;;1.95;0.88;;;;;;;14.10;61.62;99772.97;5069677;28;20120;-38
2020/12/08 01:11:59;;;;;;;3.10;1.55;;;;;;;14.00;57.74;99782.75;5069410;28;20085;-41
2020/12/08 01:14:25;;;;;;;3.13;1.48;;;;;;;14.17;58.55;99768.84;5070288;28;20041;-38
2020/12/08 01:16:50;;;;;;;11.90;2.15;;;;;;;14.10;59.49;99783.75;5069771;28;20071;-37
2020/12/08 01:19:16;;;;;;;7.75;3.08;;;;;;;14.17;59.38;99773.44;5081693;28;20110;-43
2020/12/08 01:21:41;;;;;;;5.10;1.35;;;;;;;14.00;57.52;99774.66;5089704;28;20031;-38
2020/12/08 01:24:06;;;;;;;1.77;1.02;;;;;;;13.98;57.07;99779.53;5081551;28;20043;-40
2020/12/08 01:26:32;;;;;;;2.25;0.75;;;;;;;14.04;58.00;99769.50;5090305;28;20032;-41
2020/12/08 01:28:57;;;;;;;8.88;1.65;;;;;;;14.10;55.94;99744.13;5089497;28;20036;-38
2020/12/08 01:31:31;;;;;;;2.22;1.27;;;;;;;14.08;55.64;99746.31;5089799;28;20047;-40
2020/12/08 01:33:57;;;;;;;11.65;2.97;;;;;;;14.12;56.78;99750.03;5090054;28;20079;-40
2020/12/08 01:36:22;;;;;;;6.35;3.47;;;;;;;14.13;56.91;99759.72;5089653;28;20072;-39
2020/12/08 01:38:48;;;;;;;8.63;2.90;;;;;;;14.02;59.14;99755.53;5081631;28;20032;-38
2020/12/08 01:41:13;;;;;;;3.60;1.08;;;;;;;14.06;58.47;99753.06;5089152;28;20078;-38
2020/12/08 01:43:52;;;;;;;8.18;0.57;;;;;;;14.05;59.79;99759.56;5089410;28;20042;-38
2020/12/08 01:46:21;;;;;;;2.70;2.03;;;;;;;14.08;59.63;99759.78;5089810;28;20105;-40
2020/12/08 01:48:47;;;;;;;5.40;1.45;;;;;;;14.08;60.78;99754.38;5089246;28;20118;-38
2020/12/08 01:51:16;;;;;;;3.03;1.52;;;;;;;14.15;60.63;99756.75;5088665;28;20111;-37
2020/12/08 01:53:41;;;;;;;7.78;1.33;;;;;;;14.15;60.98;99754.06;5089706;28;20051;-41
2020/12/08 01:56:08;;;;;;;6.25;1.42;;;;;;;14.16;61.80;99747.56;5088996;28;20425;-40
2020/12/08 01:58:34;;;;;;;7.05;3.35;;;;;;;14.23;61.50;99750.69;5089152;28;20032;-39
2020/12/08 02:00:59;;;;;;;5.65;3.72;;;;;;;14.27;61.92;99740.97;5089303;28;20055;-38
2020/12/08 02:03:26;;;;;;;4.68;1.90;;;;;;;14.17;61.15;99749.16;5088720;28;20028;-41
2020/12/08 02:05:52;;;;;;;3.05;1.75;;;;;;;14.19;60.62;99768.56;5089192;28;20040;-40
2020/12/08 02:08:29;;;;;;;7.78;1.70;;;;;;;14.12;59.99;99766.19;5089415;28;20052;-39
2020/12/08 02:10:54;;;;;;;2.58;1.05;;;;;;;14.14;59.96;99760.50;5088693;28;20032;-41
2020/12/08 02:13:20;;;;;;;2.83;1.25;;;;;;;14.28;59.21;99756.03;5088839;28;20666;-40
2020/12/08 02:15:46;;;;;;;4.88;1.52;;;;;;;14.16;59.50;99766.41;5089058;28;20164;-39
2020/12/08 02:18:11;;;;;;;1.25;0.47;;;;;;;14.25;60.09;99764.69;5088580;28;20389;-40
2020/12/08 02:20:37;;;;;;;1.20;0.77;;;;;;;14.20;60.85;99762.09;5089096;28;20122;-38
2020/12/08 02:23:02;;;;;;;3.80;1.35;;;;;;;14.22;60.99;99767.16;5088070;28;20055;-44
2020/12/08 02:25:27;;;;;;;2.25;1.77;;;;;;;14.14;60.97;99772.09;5088702;28;20036;-38
2020/12/08 02:27:53;;;;;;;3.83;0.90;;;;;;;14.15;61.33;99751.34;5088936;28;20497;-38
2020/12/08 02:30:18;;;;;;;8.20;0.82;;;;;;;14.15;61.40;99767.53;5088225;28;20486;-38
2020/12/08 02:32:44;;;;;;;3.20;0.93;;;;;;;14.27;60.94;99767.94;5088861;28;20668;-41
2020/12/08 02:35:09;;;;;;;1.40;0.98;;;;;;;14.21;61.65;99738.63;5088522;28;20035;-39
2020/12/08 02:37:35;;;;;;;2.33;0.75;;;;;;;14.01;62.64;99721.59;5088888;28;20078;-43
2020/12/08 02:40:03;;;;;;;5.65;2.25;;;;;;;14.12;61.63;99684.53;5070504;28;20067;-39
2020/12/08 02:42:29;;;;;;;0.65;0.47;;;;;;;14.07;61.26;99701.56;5088937;28;20376;-38
2020/12/08 02:44:54;;;;;;;10.05;1.55;;;;;;;13.95;61.87;99703.84;5087262;28;20039;-39
2020/12/08 02:47:20;;;;;;;11.45;1.50;;;;;;;14.06;60.81;99693.75;5088921;28;20444;-46
2020/12/08 02:49:45;;;;;;;1.23;0.50;;;;;;;14.12;61.22;99731.16;5088275;28;20071;-40
2020/12/08 02:52:11;;;;;;;6.90;0.80;;;;;;;14.12;60.70;99739.25;5088385;28;20042;-41
2020/12/08 02:54:36;;;;;;;10.93;2.80;;;;;;;14.11;60.70;99736.81;5087187;28;20607;-38
2020/12/08 02:57:05;;;;;;;3.17;1.67;;;;;;;14.14;61.27;99728.16;5088295;28;20086;-43
2020/12/08 02:59:37;;;;;;;7.88;1.50;;;;;;;14.17;61.04;99716.81;5079481;28;20052;-38
2020/12/08 03:02:02;;;;;;;;;;;;;;;14.11;61.00;99734.94;5071704;28;20031;-41
2020/12/08 03:04:27;;;;;;;11.27;1.35;;;;;;;14.16;61.20;99755.63;5070641;28;19928;-42
2020/12/08 03:06:53;;;;;;;1.13;0.35;;;;;;;14.10;61.50;99730.63;5071415;28;20386;-40
2020/12/08 03:09:19;;;;;;;2.72;0.98;;;;;;;14.12;60.63;99757.31;5068362;28;20040;-41
2020/12/08 03:11:44;;;;;;;8.18;1.88;;;;;;;14.11;61.48;99769.16;5068145;28;20386;-42
2020/12/08 03:14:10;;;;;;;3.33;1.42;;;;;;;14.07;61.00;99778.94;5068401;28;20048;-39
2020/12/08 03:16:36;;;;;;;2.75;1.48;;;;;;;13.99;61.01;99759.59;5068426;28;20059;-42
2020/12/08 03:19:02;;;;;;;3.10;0.80;;;;;;;14.11;60.41;99764.59;5068375;28;20040;-42
2020/12/08 03:21:34;;;;;;;1.50;0.85;;;;;;;14.09;59.92;99747.88;5068209;28;20040;-40
2020/12/08 03:24:00;;;;;;;0.70;0.38;;;;;;;14.10;59.79;99724.44;5068356;28;20029;-41
2020/12/08 03:26:26;;;;;;;3.15;1.70;;;;;;;14.09;58.29;99707.47;5068835;28;20036;-43
2020/12/08 03:28:52;;;;;;;7.03;1.13;;;;;;;14.07;58.04;99695.38;5068011;28;20127;-39
2020/12/08 03:31:17;;;;;;;0.98;0.63;;;;;;;14.02;56.60;99700.81;5068208;28;20111;-40
2020/12/08 03:33:42;;;;;;;0.38;0.20;;;;;;;14.02;60.19;99709.69;5068423;28;20045;-41
2020/12/08 03:36:15;;;;;;;2.33;0.77;;;;;;;14.08;58.05;99719.34;5071663;28;20036;-41
2020/12/08 03:38:44;;;;;;;1.23;0.35;;;;;;;14.04;57.65;99712.91;5071474;28;20130;-38
2020/12/08 03:41:09;;;;;;;4.15;0.70;;;;;;;14.04;56.93;99728.28;5071648;28;20059;-38
2020/12/08 03:43:35;;;;;;;6.53;1.63;;;;;;;14.05;54.48;99711.03;5071870;28;20063;-38
2020/12/08 03:46:00;;;;;;;0.47;0.30;;;;;;;14.13;56.36;99716.59;5071761;28;20486;-38
2020/12/08 03:48:26;;;;;;;2.42;1.63;;;;;;;14.08;56.44;99723.94;5071584;28;20045;-38
2020/12/08 03:50:52;;;;;;;3.78;1.02;;;;;;;14.16;54.30;99736.75;5071626;28;20429;-39
2020/12/08 03:53:18;;;;;;;13.63;0.93;;;;;;;14.10;58.06;99732.53;5072011;28;20059;-43
2020/12/08 03:55:43;;;;;;;2.17;0.52;;;;;;;14.02;55.35;99742.03;5071318;28;20089;-40
2020/12/08 03:58:09;;;;;;;3.20;0.32;;;;;;;14.05;57.38;99738.00;5071286;28;20069;-40
2020/12/08 04:00:34;;;;;;;1.17;0.20;;;;;;;14.04;57.09;99737.16;5071781;28;20048;-41
2020/12/08 04:03:00;;;;;;;4.90;0.68;;;;;;;14.05;57.91;99724.50;5073204;28;20067;-41
2020/12/08 04:05:25;;;;;;;0.60;0.57;;;;;;;14.04;56.42;99736.38;5071605;28;20086;-43
2020/12/08 04:07:51;;;;;;;7.72;1.10;;;;;;;14.04;56.30;99736.38;5070028;28;20032;-42
2020/12/08 04:10:16;;;;;;;2.65;0.50;;;;;;;14.00;54.47;99734.25;5070912;28;20109;-39
2020/12/08 04:12:41;;;;;;;0.30;0.30;;;;;;;14.02;55.45;99727.78;5071308;28;20029;-39
2020/12/08 04:15:07;;;;;;;1.17;0.63;;;;;;;14.16;54.05;99715.19;5071636;28;20611;-38
2020/12/08 04:17:32;;;;;;;2.45;0.55;;;;;;;14.14;51.71;99715.50;5070921;28;20098;-39
2020/12/08 04:19:58;;;;;;;2.20;0.57;;;;;;;14.14;54.58;99690.44;5071631;28;20033;-40
2020/12/08 04:22:23;;;;;;;3.10;0.95;;;;;;;14.20;54.16;99673.13;5083198;28;20520;-40
2020/12/08 04:24:49;;;;;;;0.63;0.35;;;;;;;14.06;50.60;99697.28;5083213;28;20037;-41
2020/12/08 04:27:14;;;;;;;1.00;0.22;;;;;;;14.14;51.63;99706.59;5083241;28;20039;-37
2020/12/08 04:29:40;;;;;;;2.05;0.38;;;;;;;13.99;53.85;99711.09;5080303;28;20043;-38
2020/12/08 04:32:05;;;;;;;1.75;0.95;;;;;;;14.05;53.33;99716.44;5082918;28;20050;-39
2020/12/08 04:34:31;;;;;;;1.48;0.32;;;;;;;14.10;51.34;99711.78;5085272;28;20036;-38
2020/12/08 04:36:59;;;;;;;4.88;1.27;;;;;;;14.24;52.57;99730.75;5081027;28;20125;-39
2020/12/08 04:39:25;;;;;;;1.65;1.13;;;;;;;14.22;52.55;99732.94;5084095;28;20047;-41
2020/12/08 04:41:55;;;;;;;0.73;0.43;;;;;;;14.04;55.27;99733.69;5084918;28;20031;-41
2020/12/08 04:44:21;;;;;;;2.80;0.68;;;;;;;14.11;52.82;99732.25;5082923;28;20048;-41
2020/12/08 04:46:53;;;;;;;0.45;0.30;;;;;;;14.02;54.72;99719.69;5083763;28;20039;-42
2020/12/08 04:49:21;;;;;;;1.23;0.40;;;;;;;14.11;54.02;99723.34;5081270;28;20047;-41
2020/12/08 04:51:47;;;;;;;0.70;0.40;;;;;;;14.04;53.93;99722.91;5086058;28;20390;-38
2020/12/08 04:54:12;;;;;;;0.93;0.20;;;;;;;14.07;52.26;99727.72;5082719;28;20032;-40
2020/12/08 04:56:38;;;;;;;7.93;0.60;;;;;;;14.13;51.81;99734.63;5081001;28;20024;-38
2020/12/08 04:59:06;;;;;;;1.48;0.57;;;;;;;13.98;55.03;99731.03;5070414;28;20102;-39
2020/12/08 05:01:31;;;;;;;0.73;0.28;;;;;;;14.07;53.59;99735.81;5076023;28;20052;-39
2020/12/08 05:04:01;;;;;;;0.40;0.22;;;;;;;13.99;53.40;99713.78;5073782;28;20028;-39
2020/12/08 05:06:28;;;;;;;0.80;0.70;;;;;;;13.97;53.48;99718.66;5075496;28;20040;-39
2020/12/08 05:09:07;;;;;;;1.73;0.47;;;;;;;14.10;53.14;99716.38;5070071;28;20581;-37
2020/12/08 05:11:34;;;;;;;9.30;1.52;;;;;;;14.04;52.57;99720.19;5071146;28;20064;-38
2020/12/08 05:14:05;;;;;;;4.03;0.95;;;;;;;14.09;51.81;99726.31;5070569;28;20123;-39
2020/12/08 05:16:32;;;;;;;0.82;0.65;;;;;;;14.03;52.71;99715.91;5083051;28;20650;-40
2020/12/08 05:19:08;;;;;;;0.90;0.38;;;;;;;14.05;52.80;99721.81;5089769;28;20055;-39
2020/12/08 05:21:34;;;;;;;1.90;0.88;;;;;;;14.07;52.30;99727.72;5088711;28;20483;-38
2020/12/08 05:24:00;;;;;;;0.57;0.30;;;;;;;14.02;49.86;99727.78;5089602;28;20189;-38
2020/12/08 05:26:28;;;;;;;1.92;0.90;;;;;;;13.87;53.67;99723.38;5089640;28;20077;-39
2020/12/08 05:29:00;;;;;;;4.15;0.20;;;;;;;13.91;52.27;99700.94;5089430;28;20047;-43
2020/12/08 05:31:27;;;;;;;1.85;0.80;;;;;;;13.98;49.93;99708.69;5088192;28;20560;-43
2020/12/08 05:33:58;;;;;;;3.95;0.63;;;;;;;14.12;52.17;99690.72;5089624;28;20050;-40
2020/12/08 05:36:26;;;;;;;0.60;0.60;;;;;;;14.18;51.81;99688.75;5089815;28;20062;-41
2020/12/08 05:38:59;;;;;;;0.30;0.25;;;;;;;13.98;54.35;99705.97;5086787;28;20048;-38
2020/12/08 05:41:31;;;;;;;2.15;0.73;;;;;;;13.99;52.26;99710.28;5069563;28;20032;-37
2020/12/08 05:44:05;;;;;;;1.13;0.30;;;;;;;13.93;51.42;99700.66;5086115;28;20460;-40
2020/12/08 05:46:41;;;;;;;1.40;0.95;;;;;;;13.91;51.10;99697.44;5069535;28;20462;-41
2020/12/08 05:49:18;;;;;;;1.08;0.38;;;;;;;13.86;52.74;99698.28;5069433;28;20157;-38
2020/12/08 05:51:47;;;;;;;1.90;0.68;;;;;;;13.89;53.51;99689.63;5073826;28;20028;-38
2020/12/08 05:54:19;;;;;;;3.17;1.13;;;;;;;13.87;56.59;99685.66;5069654;28;20048;-37
2020/12/08 05:56:52;;;;;;;0.03;0.03;;;;;;;13.93;53.63;99668.31;5069092;28;20478;-39
2020/12/08 05:59:29;;;;;;;0.40;0.10;;;;;;;14.03;57.11;99664.72;5080507;28;20074;-43
2020/12/08 06:01:55;;;;;;;0.45;0.32;;;;;;;14.02;50.33;99652.31;5089068;28;20040;-37
2020/12/08 06:04:21;;;;;;;1.65;0.30;;;;;;;14.10;50.25;99635.50;5083532;28;20123;-39
2020/12/08 06:06:51;;;;;;;0.40;0.25;;;;;;;14.06;51.38;99640.69;5068964;28;20036;-39
2020/12/08 06:09:27;;;;;;;0.25;0.20;;;;;;;14.11;51.51;99637.09;5081141;28;20122;-38
2020/12/08 06:11:52;;;;;;;1.10;0.50;;;;;;;14.07;52.75;99644.16;5083003;28;20111;-38
2020/12/08 06:14:34;;;;;;;1.75;0.35;;;;;;;14.08;53.77;99649.28;5069074;28;20131;-38
2020/12/08 06:17:07;;;;;;;1.40;0.75;;;;;;;13.88;53.32;99653.00;5069423;28;20040;-38
2020/12/08 06:19:35;;;;;;;1.05;0.65;;;;;;;13.96;54.78;99682.00;5069076;28;20047;-44
2020/12/08 06:22:10;;;;;;;2.30;0.57;;;;;;;13.95;53.98;99671.53;5068977;28;20086;-39
2020/12/08 06:24:35;;;;;;;0.75;0.30;;;;;;;13.90;56.14;99688.56;5069075;28;20040;-38
2020/12/08 06:27:00;;;;;;;0.63;0.30;;;;;;;13.80;54.58;99696.75;5069102;28;20539;-41
2020/12/08 06:29:26;;;;;;;3.50;0.30;;;;;;;13.85;53.78;99703.97;5068762;28;20477;-37
2020/12/08 06:31:52;;;;;;;0.75;0.38;;;;;;;13.94;53.29;99694.97;5081806;28;20375;-39
2020/12/08 06:34:29;;;;;;;0.25;0.25;;;;;;;13.93;52.75;99693.34;5088443;28;20497;-40
2020/12/08 06:36:54;;;;;;;2.38;0.55;;;;;;;13.93;52.88;99693.34;5082377;28;20779;-38
2020/12/08 06:39:21;;;;;;;0.60;0.60;;;;;;;14.00;52.29;99691.13;5069111;28;20136;-42
2020/12/08 06:41:46;;;;;;;2.45;0.20;;;;;;;13.96;52.40;99690.09;5071650;28;20154;-42
2020/12/08 06:44:22;;;;;;;1.20;0.30;;;;;;;13.92;52.41;99693.63;5069453;28;20135;-38
2020/12/08 06:46:57;;;;;;;0.70;0.38;;;;;;;13.92;52.57;99704.41;5079311;28;20641;-42
2020/12/08 06:49:23;;;;;;;7.95;2.08;;;;;;;13.92;53.05;99710.63;5069055;28;20049;-42
2020/12/08 06:51:56;;;;;;;4.05;1.25;;;;;;;13.88;53.51;99719.56;5068416;28;20078;-38
2020/12/08 06:54:22;;;;;;;1.40;0.30;;;;;;;13.83;55.27;99720.41;5080707;28;20073;-40
2020/12/08 06:56:47;;;;;;;0.80;0.40;;;;;;;13.70;56.27;99713.81;5088948;28;20032;-43
2020/12/08 06:59:23;;;;;;;1.33;0.25;;;;;;;13.70;55.55;99729.97;5088117;28;20531;-40
2020/12/08 07:01:57;;;;;;;1.15;0.63;;;;;;;13.66;54.79;99728.94;5088258;28;20081;-44
2020/12/08 07:04:25;;;;;;;0.35;0.22;;;;;;;13.70;55.52;99729.97;5088992;28;20091;-44
2020/12/08 07:06:51;;;;;;;0.20;0.20;;;;;;;13.74;57.89;99727.53;5088194;28;20032;-42
2020/12/08 07:09:18;;;;;;;2.90;1.05;;;;;;;13.75;53.15;99739.91;5069102;28;20040;-42
2020/12/08 07:11:43;;;;;;;0.85;0.55;;;;;;;13.65;54.00;99727.34;5076115;28;20036;-38
2020/12/08 07:14:09;;;;;;;0.68;0.52;;;;;;;13.67;54.39;99727.06;5078096;28;20024;-42
2020/12/08 07:16:35;;;;;;;0.85;0.40;;;;;;;13.81;52.18;99730.69;5072101;28;20072;-39
2020/12/08 07:19:05;;;;;;;4.65;1.33;;;;;;;13.75;54.58;99712.97;5072490;28;20040;-39
2020/12/08 07:21:31;;;;;;;0.30;0.30;;;;;;;13.79;51.56;99719.38;5071921;28;20111;-39
2020/12/08 07:23:57;;;;;;;0.10;0.10;;;;;;;13.67;53.59;99717.06;5072626;28;20170;-38
2020/12/08 07:26:27;;;;;;;2.05;1.00;;;;;;;13.66;51.13;99726.25;5072393;28;20622;-39
2020/12/08 07:28:55;;;;;;;0.90;0.50;;;;;;;13.68;53.88;99725.97;5072217;28;20048;-38
2020/12/08 07:31:24;;;;;;;7.13;0.80;;;;;;;13.85;51.47;99739.00;5079905;28;20478;-41
2020/12/08 07:33:51;;;;;;;8.10;0.95;;;;;;;13.81;52.24;99744.16;5083436;28;20528;-38
2020/12/08 07:36:30;;;;;;;2.58;0.32;;;;;;;13.71;51.99;99744.25;5087033;28;20047;-43
2020/12/08 07:38:57;;;;;;;1.95;0.95;;;;;;;13.64;50.42;99751.84;5071827;28;20045;-43
2020/12/08 07:41:26;;;;;;;8.77;0.50;;;;;;;13.68;50.95;99744.84;5071856;28;20044;-38
2020/12/08 07:43:53;;;;;;;4.60;1.10;;;;;;;13.66;49.02;99733.53;5072031;28;20059;-40
2020/12/08 07:46:26;;;;;;;6.53;0.80;;;;;;;13.64;48.26;99749.16;5071475;28;20035;-40
2020/12/08 07:49:00;;;;;;;0.60;0.38;;;;;;;13.61;52.05;99748.66;5071466;28;20090;-43
2020/12/08 07:51:27;;;;;;;1.30;0.52;;;;;;;13.64;49.01;99762.63;5071617;28;20050;-40
2020/12/08 07:53:52;;;;;;;7.85;1.50;;;;;;;13.66;48.39;99753.19;5071922;28;20093;-41
2020/12/08 07:56:35;;;;;;;3.05;1.40;;;;;;;13.62;52.84;99749.44;5079727;28;20115;-43
2020/12/08 07:59:01;;;;;;;0.00;0.00;;;;;;;13.64;50.91;99762.63;5071386;28;20053;-40
2020/12/08 08:01:28;;;;;;;1.92;0.73;;;;;;;13.79;49.71;99767.88;5071674;28;20082;-44
2020/12/08 08:03:53;;;;;;;1.67;1.45;;;;;;;13.75;47.92;99767.66;5071892;28;20040;-42
2020/12/08 08:06:21;;;;;;;3.22;0.88;;;;;;;13.70;49.47;99777.66;5083341;28;20028;-42
2020/12/08 08:08:48;;;;;;;1.17;0.70;;;;;;;13.77;51.35;99773.53;5091584;28;20044;-41
2020/12/08 08:11:14;;;;;;;2.65;0.45;;;;;;;13.88;49.45;99774.25;5090791;28;20549;-39
2020/12/08 08:13:40;;;;;;;2.55;0.70;;;;;;;13.84;51.23;99773.22;5090774;28;20040;-39
2020/12/08 08:16:13;;;;;;;0.50;0.43;;;;;;;13.77;49.58;99783.53;5089324;28;20032;-42
2020/12/08 08:18:39;;;;;;;1.63;0.70;;;;;;;13.67;50.57;99775.53;5071167;28;20481;-43
2020/12/08 08:21:05;;;;;;;2.92;0.93;;;;;;;13.70;52.08;99785.75;5069557;28;20342;-41
2020/12/08 08:23:30;;;;;;;3.15;0.68;;;;;;;13.71;49.79;99776.56;5071061;28;20051;-42
2020/12/08 08:25:57;;;;;;;1.88;0.77;;;;;;;13.79;53.24;99784.03;5078409;28;20123;-42
2020/12/08 08:28:23;;;;;;;2.80;1.33;;;;;;;13.72;50.81;99772.81;5070601;28;20090;-46
2020/12/08 08:30:49;;;;;;;4.43;1.00;;;;;;;13.78;52.04;99774.38;5083031;28;20028;-39
2020/12/08 08:33:14;;;;;;;3.90;0.77;;;;;;;13.70;50.50;99778.47;5079034;28;20371;-43
2020/12/08 08:35:40;;;;;;;1.40;1.02;;;;;;;13.68;52.96;99782.53;5078803;28;20943;-43
2020/12/08 08:38:06;;;;;;;1.13;0.85;;;;;;;13.68;46.72;99759.09;5074351;28;20428;-41
2020/12/08 08:40:32;;;;;;;0.40;0.32;;;;;;;13.67;55.73;99762.06;5072603;28;20067;-41
2020/12/08 08:42:58;;;;;;;0.10;0.10;;;;;;;13.67;52.71;99752.09;5081457;28;20458;-38
2020/12/08 08:45:24;;;;;;;11.07;0.52;;;;;;;13.66;57.04;99749.72;5080402;28;20043;-40
2020/12/08 08:47:50;;;;;;;1.45;0.80;;;;;;;13.60;54.79;99741.66;5069739;28;20044;-42
2020/12/08 08:50:16;;;;;;;8.88;1.17;;;;;;;13.60;57.20;99730.06;5068884;28;20056;-42
2020/12/08 08:52:41;;;;;;;4.10;0.65;;;;;;;13.65;50.49;99737.31;5069510;28;20044;-44
2020/12/08 08:55:10;;;;;;;4.55;1.88;;;;;;;13.61;51.29;99735.19;5067334;28;20118;-45
2020/12/08 08:57:39;;;;;;;5.80;0.47;;;;;;;13.61;48.64;99724.41;5081040;28;20482;-42
2020/12/08 09:00:07;;;;;;;2.22;0.65;;;;;;;13.62;55.41;99738.66;5075880;28;20047;-39
2020/12/08 09:02:33;;;;;;;0.50;0.30;;;;;;;13.62;51.50;99738.66;5077631;28;20091;-45
2020/12/08 09:04:58;;;;;;;1.23;0.75;;;;;;;13.62;54.27;99738.66;5069284;28;20124;-44
2020/12/08 09:07:26;;;;;;;2.83;0.40;;;;;;;13.66;47.12;99745.13;5081707;28;20028;-44
2020/12/08 09:09:51;;;;;;;2.40;1.15;;;;;;;13.69;47.65;99741.03;5081931;28;20032;-40
2020/12/08 09:12:17;;;;;;;0.77;0.32;;;;;;;13.75;48.49;99756.88;5073785;28;20029;-45
2020/12/08 09:14:43;;;;;;;0.22;0.15;;;;;;;13.73;48.21;99752.88;5068349;28;20115;-45
2020/12/08 09:17:08;;;;;;;0.38;0.30;;;;;;;13.69;49.23;99754.50;5073464;28;20434;-43
2020/12/08 09:19:33;;;;;;;0.88;0.40;;;;;;;13.72;47.02;99743.16;5069801;28;20029;-40
2020/12/08 09:21:59;;;;;;;0.73;0.35;;;;;;;13.76;48.68;99761.19;5069476;28;20035;-39
2020/12/08 09:24:24;;;;;;;1.80;0.50;;;;;;;13.77;49.49;99776.25;5086494;28;20606;-48
2020/12/08 09:26:50;;;;;;;1.70;0.50;;;;;;;13.66;51.98;99790.91;5080819;28;20067;-40
2020/12/08 09:29:15;;;;;;;0.50;0.20;;;;;;;13.68;53.56;99791.41;5077483;28;20418;-44
2020/12/08 09:31:41;;;;;;;0.75;0.32;;;;;;;13.69;56.46;99797.59;5074066;28;20107;-45
2020/12/08 09:34:07;;;;;;;2.58;0.82;;;;;;;13.90;52.25;99815.22;5075684;28;20495;-42
2020/12/08 09:36:34;;;;;;;1.35;0.63;;;;;;;13.87;50.77;99820.38;5072918;28;20492;-46
2020/12/08 09:38:59;;;;;;;1.25;0.77;;;;;;;13.93;49.34;99828.09;5067678;28;20040;-43
2020/12/08 09:41:25;;;;;;;3.35;0.80;;;;;;;13.97;45.91;99837.25;5073189;28;20596;-43
2020/12/08 09:43:50;;;;;;;3.63;1.42;;;;;;;14.14;49.98;99846.78;5081429;28;20040;-39
2020/12/08 09:46:16;;;;;;;1.10;0.40;;;;;;;14.41;47.70;99829.25;5082153;28;20403;-43
2020/12/08 09:48:41;;;;;;;5.20;0.88;;;;;;;14.43;44.01;99833.28;5086528;28;20075;-43
2020/12/08 09:51:07;;;;;;;1.35;0.95;;;;;;;14.31;47.05;99839.06;5076148;28;20334;-41
2020/12/08 09:53:32;;;;;;;9.35;1.00;;;;;;;14.27;48.49;99821.03;5070828;28;20036;-42
2020/12/08 09:55:58;;;;;;;5.30;0.80;;;;;;;14.40;49.06;99825.75;5075608;28;20434;-41
2020/12/08 09:58:23;;;;;;;3.72;0.60;;;;;;;14.60;44.21;99826.63;5069164;28;20032;-41
2020/12/08 10:00:49;;;;;;;1.75;0.70;;;;;;;14.63;44.71;99832.25;5075629;28;20108;-43
2020/12/08 10:03:14;;;;;;;2.45;1.08;;;;;;;14.50;46.01;99841.81;5067198;28;20050;-44
2020/12/08 10:05:40;;;;;;;12.23;3.65;;;;;;;14.35;54.25;99850.06;5080096;28;20055;-43
2020/12/08 10:08:05;;;;;;;3.63;1.65;;;;;;;14.28;47.36;99852.31;5075229;28;20032;-43
2020/12/08 10:10:31;;;;;;;1.73;0.95;;;;;;;14.65;45.64;99856.25;5078683;28;20032;-43
2020/12/08 10:12:56;;;;;;;6.20;1.58;;;;;;;14.89;46.19;99840.03;5081708;28;20040;-44
2020/12/08 10:15:22;;;;;;;12.50;3.78;;;;;;;14.87;48.73;99853.03;5065518;28;20127;-47
2020/12/08 10:17:47;;;;;;;7.50;2.42;;;;;;;14.83;44.35;99844.69;5073220;28;20047;-44
2020/12/08 10:20:13;;;;;;;13.27;4.25;;;;;;;14.63;47.00;99845.75;5065885;28;20048;-43
2020/12/08 10:22:38;;;;;;;12.68;3.67;;;;;;;14.56;49.59;99853.34;5066431;28;20082;-41
2020/12/08 10:25:04;;;;;;;20.85;3.97;;;;;;;14.47;44.63;99838.91;5066411;28;20491;-45
2020/12/08 10:27:30;;;;;;;29.50;7.20;;;;;;;14.53;51.02;99835.03;5073410;28;20048;-40
2020/12/08 10:29:55;;;;;;;15.88;3.63;;;;;;;14.57;45.87;99844.97;5073968;28;20036;-49
2020/12/08 10:32:21;;;;;;;6.95;3.17;;;;;;;14.57;48.67;99826.09;5072449;28;20050;-46
2020/12/08 10:34:46;;;;;;;27.05;6.28;;;;;;;14.62;47.57;99825.28;5069026;28;20171;-41
2020/12/08 10:37:12;;;;;;;4.57;0.93;;;;;;;14.63;47.68;99828.75;5078914;28;20668;-42
2020/12/08 10:39:37;;;;;;;6.90;1.08;;;;;;;14.59;47.15;99822.34;5086458;28;20040;-46
2020/12/08 10:42:03;;;;;;;5.95;1.05;;;;;;;14.57;46.75;99833.38;5073793;28;20197;-46
2020/12/08 10:44:28;;;;;;;11.27;2.13;;;;;;;14.52;45.06;99828.84;5080058;28;20415;-43
2020/12/08 10:46:54;;;;;;;2.97;0.90;;;;;;;14.49;44.96;99825.91;5078879;28;20543;-44
2020/12/08 10:49:20;;;;;;;2.45;1.50;;;;;;;14.45;47.90;99835.69;5077286;28;20461;-44
2020/12/08 10:51:45;;;;;;;1.15;0.52;;;;;;;14.54;46.21;99823.16;5080927;28;20035;-43
2020/12/08 10:54:11;;;;;;;1.75;1.00;;;;;;;14.43;45.83;99827.06;5074979;28;20052;-45
2020/12/08 10:56:36;;;;;;;1.35;0.68;;;;;;;14.46;46.76;99831.88;5080739;28;20039;-42
2020/12/08 10:59:02;;;;;;;7.25;1.38;;;;;;;14.45;46.62;99833.00;5069374;28;20109;-39
2020/12/08 11:01:27;;;;;;;15.43;9.88;;;;;;;14.37;46.22;99846.00;5080462;28;20115;-42
2020/12/08 11:03:54;;;;;;;1.45;1.23;;;;;;;14.43;49.31;99837.84;5080404;28;20042;-42
2020/12/08 11:06:30;;;;;;;1.30;0.60;;;;;;;14.34;47.92;99838.50;5085954;28;20111;-47
2020/12/08 11:08:56;;;;;;;2.75;1.38;;;;;;;14.30;46.98;99840.13;5068010;28;20172;-41
2020/12/08 11:36:17;;;;;;;7.00;1.35;;;;;;;14.09;50.95;99893.44;5096097;27;20384;-46
2020/12/08 11:38:43;;;;;;;6.47;1.23;;;;;;;14.09;53.77;99876.47;5086171;28;20576;-46
2020/12/08 11:41:09;;;;;;;13.48;1.40;;;;;;;14.06;52.68;99868.94;5074669;28;20080;-47
2020/12/08 11:43:36;;;;;;;1.65;0.55;;;;;;;14.10;51.52;99872.69;5073826;28;20518;-48
2020/12/08 11:46:02;;;;;;;11.80;1.85;;;;;;;14.11;50.86;99868.91;5075424;28;20046;-45
2020/12/08 11:48:28;;;;;;;5.82;0.88;;;;;;;14.08;52.25;99877.59;5075347;28;20069;-43
2020/12/08 11:50:54;;;;;;;3.33;0.98;;;;;;;14.00;51.11;99884.38;5068933;28;20044;-48
2020/12/08 11:53:19;;;;;;;6.47;1.08;;;;;;;14.03;53.28;99877.63;5071336;28;20036;-46
2020/12/08 11:55:45;;;;;;;6.75;2.58;;;;;;;13.97;51.88;99877.66;5046149;28;20040;-44
2020/12/08 11:58:11;;;;;;;7.05;1.48;;;;;;;14.03;52.36;99873.03;5081016;28;20443;-44